Vamp — WDD2421 — position and weather

sailwx.info

Track history (hours):
 
Tides and Currents Weather Stations Pressure Air Temp Water Temp Dewpoint Dewpoint Depression Visibility Wind Speed Wind Dir Waves Ship Positions

Vamp

Owner: Sitar, Leonard J, Holmdel, NJ. More information available from US FCC via Universal Licensing System and Coast Guard Vessel Documentation Center.

Last reported at 2017-Sep-02 23:03 UTC. Time now 2017-Nov-19 12:41 UTC.
Position N 41°06' W 072°39'.
Warning: this ship's position is months out of date.

Length 14 m.

Type: Sailing vessel. MMSI: 367115110.

Date/timePositionNaut miles runAvg speedWind from/ knotsBaromVisibWave heightAir tempDewpointWater temp
2017-Sep-02 23:03N 41°06' W 072°39'0 7.4
2017-Sep-02 22:59N 41°06' W 072°38'3 6.3
2017-Sep-02 22:30N 41°07' W 072°34'3 5.8
2017-Sep-02 22:01N 41°07' W 072°30'3 6.1
2017-Sep-02 21:28N 41°08' W 072°26'2 4.8
2017-Sep-02 20:59N 41°10' W 072°24'1 2.1
2017-Sep-02 20:30N 41°10' W 072°23'1 2.3
2017-Sep-02 19:58N 41°10' W 072°21'2 2.3
2017-Sep-02 19:18N 41°11' W 072°19'4 0.2
2017-Sep-02 00:34N 41°10' W 072°14'2 8.0
2017-Sep-02 00:17N 41°10' W 072°17'2 7.2
2017-Sep-01 23:59N 41°10' W 072°20'4 7.4
2017-Sep-01 23:29N 41°09' W 072°24'4 7.9
2017-Sep-01 22:56N 41°08' W 072°30'5 8.3
2017-Sep-01 22:23N 41°08' W 072°36'  
Track history (hours):
 
Tides and Currents Weather Stations Pressure Air Temp Water Temp Dewpoint Dewpoint Depression Visibility Wind Speed Wind Dir Waves Ship Positions

Vamp

Owner: Sitar, Leonard J, Holmdel, NJ. More information available from US FCC via Universal Licensing System and Coast Guard Vessel Documentation Center.

Last reported at 2017-Sep-02 23:03 UTC. Time now 2017-Nov-19 12:41 UTC.
Position N 41°06' W 072°39'.
Warning: this ship's position is months out of date.

Length 14 m.

Type: Sailing vessel. MMSI: 367115110.

Date/timePositionNaut miles runAvg speedWind from/ knotsBaromVisibWave heightAir tempDewpointWater temp
2017-Sep-02 23:03N 41°06' W 072°39'0 7.4
2017-Sep-02 22:59N 41°06' W 072°38'3 6.3
2017-Sep-02 22:30N 41°07' W 072°34'3 5.8
2017-Sep-02 22:01N 41°07' W 072°30'3 6.1
2017-Sep-02 21:28N 41°08' W 072°26'2 4.8
2017-Sep-02 20:59N 41°10' W 072°24'1 2.1
2017-Sep-02 20:30N 41°10' W 072°23'1 2.3
2017-Sep-02 19:58N 41°10' W 072°21'2 2.3
2017-Sep-02 19:18N 41°11' W 072°19'4 0.2
2017-Sep-02 00:34N 41°10' W 072°14'2 8.0
2017-Sep-02 00:17N 41°10' W 072°17'2 7.2
2017-Sep-01 23:59N 41°10' W 072°20'4 7.4
2017-Sep-01 23:29N 41°09' W 072°24'4 7.9
2017-Sep-01 22:56N 41°08' W 072°30'5 8.3
2017-Sep-01 22:23N 41°08' W 072°36'  

Dump ship's entire track history